Terminal Aerodrome Forecast
Issued by NWS

Home | Current Version | Previous Version | Text Only | Print | Product List | Glossary On
Versions: 1 2 3 4 5 6 7 8 9 10 11 12
000
FTUS46 KOTX 251120
TAFPUW
TAF
KPUW 251120Z 2512/2612 30005KT P6SM FEW050 SCT090 BKN120
     FM251400 26005KT P6SM BKN050 OVC100
     FM251900 31007KT P6SM VCSH SCT035 BKN050 OVC100
     FM260400 VRB03KT P6SM SCT035 BKN150 BKN200=

USA.gov is the U.S. government's official web portal to all federal, state and local government web resources and services.